Bremerton, WA

9:54 PM PDT on September 17, 2014 (GMT -0700)
Boeing Field-King County International | Change Station
CLOSE
Current Station
Airport
Location: Seattle Boeing,
Elevation: 16 ft
Nearby Weather Stations
4.0 Earthquake: Seabeck, Washington (18 hours ago)  

Elev 16 ft 47.53 °N, 122.30 °W | Updated 1 hour ago

Rain
Rain
67 °F
Feels Like 67 °F
N
5
Wind Variable Wind from Variable

Today
High -- | Low -- °F
--% Chance of Precip.
Yesterday
High -- | Low -- °F
Precip. -- in
6:50 AM 7:18 PM
Waning Crescent, 30% visible
Pressure 29.75 in
Visibility 10.0 miles
Clouds Mostly Cloudy 11000 ft
Dew Point 54 °F
Humidity 63%
Rainfall 0.00 in
Snow Depth 0 in , 0 in , 0 in
UV 0 out of 12
Pollen 1.70 out of 12
Air Quality Not available.
Flu Activity Not available.
METAR KBFI 180353Z VRB04KT 10SM BKN110 19/12 A2975 RMK AO2 RAE0254 SLP075 T01940122

More Conditions Fewer Conditions

Pressure 29.75 in
Visibility 10.0 miles
Clouds Mostly Cloudy 11000 ft
Dew Point 54 °F
Humidity 63%
Rainfall 0.00 in
Snow Depth 0 in , 0 in , 0 in
UV 0 out of 12
Pollen 1.70 out of 12
Air Quality Not available.
Flu Activity Not available.
METAR KBFI 180353Z VRB04KT 10SM BKN110 19/12 A2975 RMK AO2 RAE0254 SLP075 T01940122

More Conditions Fewer Conditions

10-Day Weather Forecast

Almanac

Astronomy

Sep. 17, 2014 Rise Set
Actual Time 6:50 AM PDT 7:18 PM PDT
Civil Twilight 6:19 AM PDT 7:49 PM PDT
Nautical Twilight 5:43 AM PDT 8:25 PM PDT
Astronomical Twilight 5:04 AM PDT 9:03 PM PDT
Moon 12:37 AM PDT (9/17) 3:49 PM PDT (9/17)
Length of Visible Light 13h 29m
Length of Day
12h 27m
Tomorrow will be 3m 24s shorter.
Waning Crescent, 30% of the Moon is Illuminated
Sep 18
Waning Crescent
Sep 24
New
Oct 1
First Quarter
Oct 8
Full
Oct 15
Last Quarter

Yesterday's Extremes

State Highs State Lows

Community

WunderPhotos

Upload Photos

1,754,295 photos uploaded!

Nearby

Snow Depth

Station Depth Elevation
Rainy Pass 0 in 4780 ft
Pope Ridge 0 in 3540 ft
Sasse Ridge 0 in 4200 ft
Wells Creek 0 in 4200 ft
Swift Creek 0 in 3770 ft

Earthquake Activity

City Distance Mag. Time & Date
Seabeck, Washington 18 miles 4.0 3:06 AM PDT
2014-09-17
Morton, Washington 88 miles 3.0 5:43 AM PDT
2014-09-16
Minimum magnitude displayed is 2.5.

Coastal Water Temperatures

Place Temperature
Port Townsend, WA 53.1 °F
Seattle, WA 55.9 °F
Friday Harbor, WA 53.1 °F
Tacoma, WA 55.9 °F

Nearby Weather Stations